Time;durP1;ratioP1;P1;durP2;ratioP2;P2;SDS_P1;SDS_P2;PMS_P1;PMS_P2;Temp;Humidity;BMP_temperature;BMP_pressure;BME280_temperature;BME280_humidity;BME280_pressure;Samples;Min_cycle;Max_cycle;Signal;HPM_P1;HPM_P2
2022/12/11 00:01:42;;;;;;;38.75;13.95;;;0.70;99.90;;;;;;4976757;28;20035;-82
2022/12/11 00:04:08;;;;;;;47.88;16.90;;;0.70;99.90;;;;;;4938267;28;20027;-82
2022/12/11 00:06:33;;;;;;;40.05;14.93;;;0.80;99.90;;;;;;4969487;28;20038;-81
2022/12/11 00:08:59;;;;;;;48.58;17.33;;;0.80;99.90;;;;;;4955756;28;20683;-81
2022/12/11 00:11:24;;;;;;;37.97;11.52;;;0.80;99.90;;;;;;4968094;28;20687;-81
2022/12/11 00:13:52;;;;;;;44.83;14.60;;;0.70;99.90;;;;;;4954475;28;20061;-82
2022/12/11 00:16:19;;;;;;;66.95;21.15;;;0.70;99.90;;;;;;4967279;28;20509;-81
2022/12/11 00:18:45;;;;;;;61.80;21.00;;;0.70;99.90;;;;;;4980389;28;20112;-82
2022/12/11 00:21:13;;;;;;;49.95;14.77;;;0.70;99.90;;;;;;4970977;28;20437;-82
2022/12/11 00:23:38;;;;;;;51.13;17.52;;;0.60;99.90;;;;;;4971757;28;20406;-82
2022/12/11 00:26:05;;;;;;;53.70;20.33;;;0.60;99.90;;;;;;4952063;28;20043;-82
2022/12/11 00:28:31;;;;;;;35.65;12.90;;;0.60;99.90;;;;;;4952870;28;20118;-82
2022/12/11 00:30:57;;;;;;;53.65;16.95;;;0.60;99.90;;;;;;4958745;28;20162;-81
2022/12/11 00:33:22;;;;;;;48.50;17.55;;;0.70;99.90;;;;;;4939925;28;20125;-81
2022/12/11 00:35:48;;;;;;;73.53;20.05;;;0.70;99.90;;;;;;4981181;28;20528;-81
2022/12/11 00:38:18;;;;;;;48.92;16.00;;;0.60;99.90;;;;;;4961461;28;20506;-82
2022/12/11 00:40:43;;;;;;;59.05;18.52;;;0.70;99.90;;;;;;4968357;28;20049;-82
2022/12/11 00:43:09;;;;;;;60.17;17.80;;;0.60;99.90;;;;;;4986313;28;20026;-82
2022/12/11 00:45:36;;;;;;;39.80;14.35;;;0.70;99.90;;;;;;4968200;28;20395;-81
2022/12/11 00:48:01;;;;;;;52.15;13.73;;;0.70;99.90;;;;;;4986747;28;20489;-82
2022/12/11 00:50:27;;;;;;;75.90;22.65;;;0.70;99.90;;;;;;4968264;28;20050;-82
2022/12/11 00:52:53;;;;;;;63.53;19.35;;;0.70;99.90;;;;;;4954542;28;20033;-82
2022/12/11 00:55:18;;;;;;;70.93;18.35;;;0.80;99.90;;;;;;4971942;28;20109;-82
2022/12/11 00:57:44;;;;;;;78.97;23.67;;;0.90;99.90;;;;;;4963942;28;20038;-82
2022/12/11 01:00:11;;;;;;;65.07;18.10;;;0.70;99.90;;;;;;4952813;28;20030;-82
2022/12/11 01:02:37;;;;;;;80.93;24.35;;;0.70;99.90;;;;;;4960886;28;20144;-82
2022/12/11 01:05:03;;;;;;;74.95;24.83;;;0.80;99.90;;;;;;4966534;28;20755;-82
2022/12/11 01:07:28;;;;;;;51.80;14.55;;;0.80;99.90;;;;;;4964966;28;20094;-82
2022/12/11 01:12:39;;;;;;;70.65;21.83;;;0.70;99.90;;;;;;4981141;28;20076;-82
2022/12/11 01:15:05;;;;;;;84.78;25.67;;;0.70;99.90;;;;;;4967049;28;20105;-82
2022/12/11 01:17:30;;;;;;;52.10;16.50;;;0.60;99.90;;;;;;4979802;28;20086;-82
2022/12/11 01:19:56;;;;;;;67.53;19.25;;;0.60;99.90;;;;;;4966678;28;20197;-82
2022/12/11 01:22:21;;;;;;;73.55;20.92;;;0.60;99.90;;;;;;4968367;28;20065;-82
2022/12/11 01:24:47;;;;;;;74.25;24.48;;;0.70;99.90;;;;;;4968542;28;20026;-82
2022/12/11 01:27:12;;;;;;;42.30;14.60;;;0.60;99.90;;;;;;4935845;28;20045;-82
2022/12/11 01:29:38;;;;;;;67.53;21.35;;;0.70;99.90;;;;;;4986480;28;20215;-82
2022/12/11 01:32:04;;;;;;;100.90;28.77;;;0.70;99.90;;;;;;4992503;28;20050;-82
2022/12/11 01:34:32;;;;;;;63.75;16.70;;;0.70;99.90;;;;;;4982404;28;20637;-82
2022/12/11 01:36:58;;;;;;;62.30;17.45;;;0.70;99.90;;;;;;4948328;28;20031;-82
2022/12/11 01:39:23;;;;;;;73.22;22.10;;;0.70;99.90;;;;;;4952923;28;20038;-82
2022/12/11 01:41:49;;;;;;;69.03;20.88;;;0.60;99.90;;;;;;4986473;28;20117;-82
2022/12/11 01:44:14;;;;;;;79.53;25.92;;;0.70;99.90;;;;;;4973331;28;20491;-82
2022/12/11 01:46:40;;;;;;;79.22;23.92;;;0.70;99.90;;;;;;4981725;28;20100;-82
2022/12/11 01:49:11;;;;;;;43.78;13.00;;;0.70;99.90;;;;;;4953750;28;20121;-82
2022/12/11 01:51:47;;;;;;;76.07;21.13;;;0.70;99.90;;;;;;4952983;28;20058;-82
2022/12/11 01:54:13;;;;;;;78.07;23.70;;;0.70;99.90;;;;;;4983699;28;20035;-81
2022/12/11 01:56:39;;;;;;;56.30;16.48;;;0.70;99.90;;;;;;4957703;28;20100;-82
2022/12/11 01:59:06;;;;;;;66.22;19.52;;;0.70;99.90;;;;;;4958128;28;20038;-79
2022/12/11 02:01:38;;;;;;;64.40;17.25;;;0.70;99.90;;;;;;4958389;28;20462;-79
2022/12/11 02:04:04;;;;;;;89.90;27.90;;;0.70;99.90;;;;;;4972127;28;20138;-79
2022/12/11 02:06:37;;;;;;;77.55;25.50;;;0.70;99.90;;;;;;4960928;28;20135;-79
2022/12/11 02:09:04;;;;;;;63.28;21.42;;;0.70;99.90;;;;;;4950368;28;20125;-79
2022/12/11 02:11:35;;;;;;;63.47;19.40;;;0.70;99.90;;;;;;4956468;28;20371;-79
2022/12/11 02:14:29;;;;;;;66.75;20.63;;;0.80;99.90;;;;;;4984629;28;20085;-79
2022/12/11 02:16:59;;;;;;;63.35;19.58;;;0.70;99.90;;;;;;4972023;28;20026;-79
2022/12/11 02:19:50;;;;;;;74.90;23.75;;;0.70;99.90;;;;;;4958379;28;20046;-80
2022/12/11 02:22:30;;;;;;;74.72;22.20;;;0.70;99.90;;;;;;4990916;28;20034;-79
2022/12/11 02:25:02;;;;;;;63.20;17.58;;;0.70;99.90;;;;;;4988926;28;20080;-79
2022/12/11 02:27:55;;;;;;;62.97;17.63;;;0.70;99.90;;;;;;4973938;28;20293;-79
2022/12/11 02:30:20;;;;;;;39.85;13.75;;;0.80;99.90;;;;;;4952729;28;20038;-79
2022/12/11 02:32:59;;;;;;;50.88;16.48;;;0.80;99.90;;;;;;4959751;28;20044;-79
2022/12/11 02:35:41;;;;;;;52.90;17.48;;;0.70;99.90;;;;;;4978833;28;20038;-80
2022/12/11 02:38:20;;;;;;;62.50;20.48;;;0.70;99.90;;;;;;4940212;28;20086;-79
2022/12/11 02:40:46;;;;;;;54.08;15.27;;;0.70;99.90;;;;;;4970811;28;20490;-79
2022/12/11 02:43:12;;;;;;;49.00;17.02;;;0.70;99.90;;;;;;4960137;28;20027;-79
2022/12/11 02:45:38;;;;;;;49.28;14.70;;;0.70;99.90;;;;;;4968684;28;20026;-79
2022/12/11 02:48:04;;;;;;;35.90;12.82;;;0.70;99.90;;;;;;4955340;28;20448;-79
2022/12/11 02:50:30;;;;;;;37.38;14.85;;;0.70;99.90;;;;;;4957401;28;20041;-80
2022/12/11 02:52:55;;;;;;;43.05;14.50;;;0.70;99.90;;;;;;4959891;28;20030;-80
2022/12/11 02:55:21;;;;;;;47.13;15.68;;;0.70;99.90;;;;;;4976909;28;20030;-79
2022/12/11 02:57:55;;;;;;;46.08;16.20;;;0.70;99.90;;;;;;4945007;28;20510;-80
2022/12/11 03:00:21;;;;;;;65.68;21.48;;;0.70;99.90;;;;;;4973017;28;20030;-80
2022/12/11 03:02:47;;;;;;;49.40;16.88;;;0.70;99.90;;;;;;4958743;28;20026;-79
2022/12/11 03:05:13;;;;;;;28.83;9.88;;;0.60;99.90;;;;;;4941055;28;20080;-80
2022/12/11 03:07:39;;;;;;;60.88;20.40;;;0.60;99.90;;;;;;4970607;28;20018;-79
2022/12/11 03:10:07;;;;;;;37.85;14.02;;;0.70;99.90;;;;;;4971625;28;20027;-80
2022/12/11 03:12:35;;;;;;;48.70;16.10;;;0.70;99.90;;;;;;4969179;28;20034;-79
2022/12/11 03:15:09;;;;;;;42.45;12.10;;;0.70;99.90;;;;;;4971518;28;20398;-80
2022/12/11 03:17:46;;;;;;;50.75;16.58;;;0.70;99.90;;;;;;4955936;28;20619;-79
2022/12/11 03:20:22;;;;;;;47.75;16.65;;;0.70;99.90;;;;;;4983261;28;20567;-81
2022/12/11 03:23:03;;;;;;;51.53;17.75;;;0.70;99.90;;;;;;4970970;28;20027;-80
2022/12/11 03:25:42;;;;;;;43.85;15.43;;;0.70;99.90;;;;;;4945813;28;20513;-80
2022/12/11 03:28:40;;;;;;;44.13;15.82;;;0.80;99.90;;;;;;4964136;28;20478;-80
2022/12/11 03:31:12;;;;;;;47.90;17.63;;;0.90;99.90;;;;;;4974245;28;20044;-79
2022/12/11 03:33:42;;;;;;;44.50;14.80;;;0.80;99.90;;;;;;4967879;28;20517;-80
2022/12/11 03:36:13;;;;;;;47.50;15.48;;;0.70;99.90;;;;;;4955668;28;20046;-80
2022/12/11 03:38:50;;;;;;;45.90;17.17;;;0.70;99.90;;;;;;4945733;28;20072;-80
2022/12/11 03:41:17;;;;;;;15.52;5.90;;;0.70;99.90;;;;;;4970059;28;20679;-79
2022/12/11 03:43:43;;;;;;;49.08;16.83;;;0.70;99.90;;;;;;4972631;28;20038;-80
2022/12/11 03:46:08;;;;;;;48.88;17.90;;;0.70;99.90;;;;;;4970442;28;20485;-80
2022/12/11 03:48:37;;;;;;;42.13;13.32;;;0.80;99.90;;;;;;4972871;28;20031;-79
2022/12/11 03:51:06;;;;;;;35.33;12.77;;;0.70;99.90;;;;;;4956156;28;20042;-80
2022/12/11 03:53:33;;;;;;;41.70;15.30;;;0.80;99.90;;;;;;4955408;28;20042;-80
2022/12/11 03:56:02;;;;;;;45.92;17.38;;;0.80;99.90;;;;;;4940379;28;20034;-82
2022/12/11 03:58:28;;;;;;;47.05;15.57;;;0.80;99.90;;;;;;4955682;28;20092;-82
2022/12/11 04:00:54;;;;;;;33.55;13.45;;;0.80;99.90;;;;;;4965221;28;20035;-82
2022/12/11 04:03:19;;;;;;;43.05;15.57;;;0.80;99.90;;;;;;4984792;28;20469;-81
2022/12/11 04:05:49;;;;;;;55.13;18.75;;;0.70;99.90;;;;;;4967308;28;20042;-82
2022/12/11 04:08:15;;;;;;;48.17;15.75;;;0.80;99.90;;;;;;4937797;28;20038;-82
2022/12/11 04:10:41;;;;;;;39.47;14.55;;;0.80;99.90;;;;;;4951913;28;20525;-82
2022/12/11 04:13:07;;;;;;;54.00;17.55;;;0.80;99.90;;;;;;4968783;28;20027;-82
2022/12/11 04:15:33;;;;;;;36.20;13.63;;;0.80;99.90;;;;;;4982486;28;20033;-83
2022/12/11 04:26:16;;;;;;;48.60;17.35;;;0.90;99.90;;;;;;4969773;28;20527;-82
2022/12/11 04:28:42;;;;;;;46.00;15.20;;;1.00;99.90;;;;;;4968307;28;20104;-82
2022/12/11 04:31:12;;;;;;;41.92;15.90;;;1.00;99.90;;;;;;4962907;28;20054;-82
2022/12/11 04:33:37;;;;;;;47.92;16.33;;;0.90;99.90;;;;;;4947294;28;20118;-82
2022/12/11 04:36:03;;;;;;;39.95;13.60;;;0.80;99.90;;;;;;4972666;28;20719;-82
2022/12/11 04:38:28;;;;;;;43.80;14.48;;;1.00;99.90;;;;;;4950886;28;20026;-82
2022/12/11 04:41:02;;;;;;;51.65;19.98;;;1.00;99.90;;;;;;4973945;28;20482;-82
2022/12/11 04:43:27;;;;;;;38.42;15.50;;;1.00;99.90;;;;;;4976270;28;20512;-82
2022/12/11 04:46:04;;;;;;;45.88;16.48;;;0.90;99.90;;;;;;4970963;28;20058;-82
2022/12/11 04:48:30;;;;;;;42.03;16.02;;;1.00;99.90;;;;;;4986422;28;20549;-83
2022/12/11 04:50:55;;;;;;;46.80;17.15;;;1.00;99.90;;;;;;4962343;28;20121;-82
2022/12/11 04:53:21;;;;;;;52.08;17.85;;;1.00;99.90;;;;;;4969043;28;20116;-81
2022/12/11 04:55:46;;;;;;;54.65;17.30;;;0.90;99.90;;;;;;4933219;28;20061;-82
2022/12/11 04:58:12;;;;;;;59.65;21.00;;;1.00;99.90;;;;;;4964139;28;20038;-82
2022/12/11 05:00:39;;;;;;;52.47;18.60;;;0.90;99.90;;;;;;4969174;28;20058;-82
2022/12/11 05:03:05;;;;;;;43.13;16.15;;;0.90;99.90;;;;;;4975648;28;20122;-83
2022/12/11 05:05:31;;;;;;;53.25;18.70;;;0.90;99.90;;;;;;4954764;28;20117;-82
2022/12/11 05:07:56;;;;;;;53.30;18.02;;;0.90;99.90;;;;;;4970825;28;20069;-82
2022/12/11 05:10:22;;;;;;;52.35;19.05;;;1.00;99.90;;;;;;4973007;28;20048;-82
2022/12/11 05:12:47;;;;;;;43.88;15.30;;;0.90;99.90;;;;;;4970663;28;20077;-82
2022/12/11 05:15:13;;;;;;;59.20;20.60;;;0.90;99.90;;;;;;4984227;28;20105;-82
2022/12/11 05:17:38;;;;;;;47.15;17.60;;;0.90;99.90;;;;;;4967661;28;20102;-82
2022/12/11 05:20:04;;;;;;;43.97;14.98;;;0.80;99.90;;;;;;4969230;28;20034;-82
2022/12/11 05:22:30;;;;;;;62.75;21.77;;;0.90;99.90;;;;;;4965023;28;20053;-82
2022/12/11 05:24:56;;;;;;;43.95;17.17;;;0.80;99.90;;;;;;4970219;28;20510;-81
2022/12/11 05:27:21;;;;;;;30.20;12.48;;;0.80;99.90;;;;;;4955158;28;20038;-82
2022/12/11 05:29:47;;;;;;;42.28;14.90;;;0.80;99.90;;;;;;4983964;28;20019;-82
2022/12/11 05:32:12;;;;;;;36.25;13.50;;;0.80;99.90;;;;;;4954590;28;20062;-82
2022/12/11 05:34:38;;;;;;;50.35;18.08;;;0.90;99.90;;;;;;4969029;28;20033;-81
2022/12/11 05:37:04;;;;;;;38.25;14.05;;;1.00;99.90;;;;;;4950436;28;20035;-82
2022/12/11 05:39:29;;;;;;;53.90;20.70;;;0.90;99.90;;;;;;4983107;28;21496;-82
2022/12/11 05:41:55;;;;;;;53.00;22.17;;;1.00;99.90;;;;;;4965463;28;20023;-81
2022/12/11 05:44:21;;;;;;;41.53;14.00;;;1.00;99.90;;;;;;4969846;28;20141;-82
2022/12/11 05:46:47;;;;;;;57.88;20.80;;;1.00;99.90;;;;;;4966694;28;20030;-82
2022/12/11 05:49:12;;;;;;;51.75;17.45;;;0.90;99.90;;;;;;4968016;28;20037;-82
2022/12/11 05:51:38;;;;;;;39.80;15.32;;;1.00;99.90;;;;;;4952606;28;20038;-82
2022/12/11 05:54:04;;;;;;;51.50;17.38;;;1.00;99.90;;;;;;4978087;28;20041;-82
2022/12/11 05:56:31;;;;;;;37.65;13.93;;;1.10;99.90;;;;;;4971053;28;20034;-82
2022/12/11 05:58:56;;;;;;;45.63;16.02;;;1.00;99.90;;;;;;4988228;28;20039;-81
2022/12/11 06:01:39;;;;;;;60.40;21.20;;;1.10;99.90;;;;;;4970429;28;20042;-82
2022/12/11 06:04:05;;;;;;;38.03;15.02;;;1.00;99.90;;;;;;4967984;28;20038;-82
2022/12/11 06:06:31;;;;;;;42.88;17.73;;;1.10;99.90;;;;;;4969878;28;20049;-82
2022/12/11 06:08:57;;;;;;;45.47;16.55;;;1.10;99.90;;;;;;4969814;28;20026;-82
2022/12/11 06:11:24;;;;;;;43.38;15.60;;;1.10;99.90;;;;;;4988798;28;20031;-82
2022/12/11 06:13:51;;;;;;;58.33;19.92;;;1.10;99.90;;;;;;4940351;28;20560;-82
2022/12/11 06:16:16;;;;;;;46.05;17.13;;;1.10;99.90;;;;;;4983062;28;20046;-81
2022/12/11 06:18:43;;;;;;;58.83;21.25;;;1.10;99.90;;;;;;4983313;28;20077;-81
2022/12/11 06:21:28;;;;;;;59.38;21.50;;;1.10;99.90;;;;;;4984924;28;20030;-80
2022/12/11 06:23:55;;;;;;;47.90;17.23;;;1.00;99.90;;;;;;4966757;28;20043;-81
2022/12/11 06:26:20;;;;;;;40.90;15.50;;;1.10;99.90;;;;;;4955733;28;20027;-81
2022/12/11 06:28:47;;;;;;;59.25;21.05;;;1.10;99.90;;;;;;4969928;28;20045;-81
2022/12/11 06:31:13;;;;;;;41.00;14.18;;;1.10;99.90;;;;;;4951472;28;20031;-80
2022/12/11 06:33:38;;;;;;;46.50;15.35;;;1.10;99.90;;;;;;4968284;28;20458;-81
2022/12/11 06:36:08;;;;;;;44.97;15.52;;;1.10;99.90;;;;;;4953539;28;20050;-80
2022/12/11 06:38:34;;;;;;;54.97;18.15;;;1.10;99.90;;;;;;4952275;28;20034;-80
2022/12/11 06:41:03;;;;;;;43.95;17.60;;;1.10;99.90;;;;;;4943501;28;20038;-80
2022/12/11 06:43:29;;;;;;;46.17;16.42;;;1.10;99.90;;;;;;4957017;28;20041;-81
2022/12/11 06:45:54;;;;;;;44.75;17.13;;;1.10;99.90;;;;;;4963731;28;20023;-81
2022/12/11 06:48:20;;;;;;;49.90;16.35;;;1.10;99.90;;;;;;4969020;28;20023;-81
2022/12/11 06:50:46;;;;;;;55.65;20.25;;;1.00;99.90;;;;;;4982101;28;20433;-80
2022/12/11 06:53:12;;;;;;;50.50;19.83;;;1.10;99.90;;;;;;4958200;28;20058;-81
2022/12/11 06:55:38;;;;;;;42.55;16.38;;;1.00;99.90;;;;;;4958206;28;20251;-81
2022/12/11 06:58:03;;;;;;;44.47;16.88;;;1.00;99.90;;;;;;4940401;28;20120;-81
2022/12/11 07:00:29;;;;;;;54.08;20.50;;;1.10;99.90;;;;;;4985246;28;20477;-80
2022/12/11 07:02:54;;;;;;;64.63;22.80;;;1.10;99.90;;;;;;4952320;28;20027;-81
2022/12/11 07:05:20;;;;;;;48.72;16.30;;;1.00;99.90;;;;;;4985905;28;20774;-81
2022/12/11 07:07:46;;;;;;;64.63;24.40;;;1.00;99.90;;;;;;4969931;28;20034;-81
2022/12/11 07:10:11;;;;;;;51.53;22.25;;;1.00;99.90;;;;;;4957697;28;20049;-81
2022/12/11 07:12:39;;;;;;;50.03;18.10;;;1.00;99.90;;;;;;4970677;28;20030;-81
2022/12/11 07:15:05;;;;;;;47.90;16.80;;;1.00;99.90;;;;;;4939336;28;20517;-81
2022/12/11 07:17:30;;;;;;;38.58;15.75;;;1.00;99.90;;;;;;4953936;28;20685;-81
2022/12/11 07:19:56;;;;;;;70.72;24.65;;;1.00;99.90;;;;;;4970436;28;20042;-82
2022/12/11 07:22:22;;;;;;;65.40;23.35;;;1.00;99.90;;;;;;4960055;28;20026;-81
2022/12/11 07:24:47;;;;;;;48.67;18.60;;;1.00;99.90;;;;;;4958059;28;20188;-82
2022/12/11 07:27:13;;;;;;;45.55;17.45;;;1.00;99.90;;;;;;4971690;28;20080;-81
2022/12/11 07:29:38;;;;;;;48.60;19.23;;;1.00;99.90;;;;;;4962110;28;20113;-81
2022/12/11 07:32:04;;;;;;;48.92;17.48;;;1.10;99.90;;;;;;4954884;28;20030;-81
2022/12/11 07:34:30;;;;;;;51.83;19.83;;;1.00;99.90;;;;;;4957255;28;20450;-81
2022/12/11 07:36:55;;;;;;;49.20;16.95;;;1.10;99.90;;;;;;4969561;28;20037;-82
2022/12/11 07:39:21;;;;;;;50.35;18.77;;;1.00;99.90;;;;;;4956404;28;20045;-82
2022/12/11 07:41:46;;;;;;;51.88;19.05;;;1.00;99.90;;;;;;4938008;28;20031;-81
2022/12/11 07:44:12;;;;;;;43.10;17.55;;;1.10;99.90;;;;;;4954869;28;20038;-82
2022/12/11 07:46:48;;;;;;;52.47;21.38;;;1.00;99.90;;;;;;4985086;28;20514;-82
2022/12/11 07:49:13;;;;;;;48.85;16.90;;;1.10;99.90;;;;;;4980598;28;20441;-82
2022/12/11 07:51:39;;;;;;;60.95;22.20;;;1.10;99.90;;;;;;4953533;28;20053;-82
2022/12/11 07:54:09;;;;;;;50.88;18.10;;;1.10;99.90;;;;;;4952906;28;20031;-82
2022/12/11 07:56:35;;;;;;;43.42;18.15;;;1.00;99.90;;;;;;4990388;28;20045;-82
2022/12/11 07:59:01;;;;;;;51.70;20.30;;;1.10;99.90;;;;;;4971901;28;20060;-82
2022/12/11 08:01:27;;;;;;;47.85;18.88;;;1.00;99.90;;;;;;4988500;28;20030;-79
2022/12/11 08:03:54;;;;;;;47.50;18.10;;;1.00;99.90;;;;;;4959942;28;20027;-79
2022/12/11 08:06:27;;;;;;;35.38;15.40;;;1.10;99.90;;;;;;4957966;28;20065;-80
2022/12/11 08:08:54;;;;;;;56.42;20.13;;;1.10;99.90;;;;;;4971029;28;20055;-80
2022/12/11 08:11:26;;;;;;;39.95;18.23;;;1.20;99.90;;;;;;4959064;28;20038;-79
2022/12/11 08:13:52;;;;;;;46.10;16.50;;;1.20;99.90;;;;;;4963076;28;20059;-80
2022/12/11 08:16:18;;;;;;;38.25;14.00;;;1.10;99.90;;;;;;4936846;28;20030;-79
2022/12/11 08:18:44;;;;;;;42.67;16.88;;;1.20;99.90;;;;;;4971963;28;20491;-79
2022/12/11 08:21:17;;;;;;;44.72;17.67;;;1.20;99.90;;;;;;4937634;28;20089;-79
2022/12/11 08:23:42;;;;;;;40.08;16.15;;;1.20;99.90;;;;;;4947386;28;20038;-79
2022/12/11 08:26:47;;;;;;;44.22;14.57;;;1.20;99.90;;;;;;4973613;28;20042;-79
2022/12/11 08:31:59;;;;;;;43.00;17.13;;;1.20;99.90;;;;;;4967079;28;20035;-81
2022/12/11 08:34:24;;;;;;;53.67;19.85;;;1.10;99.90;;;;;;4954435;28;20433;-82
2022/12/11 08:36:50;;;;;;;35.60;13.70;;;1.10;99.90;;;;;;4954252;28;20482;-81
2022/12/11 08:39:18;;;;;;;43.30;15.98;;;1.10;99.90;;;;;;4936776;28;20058;-82
2022/12/11 08:41:44;;;;;;;52.80;19.58;;;1.10;99.90;;;;;;4970765;28;20418;-81
2022/12/11 08:44:13;;;;;;;42.10;18.60;;;1.10;99.90;;;;;;4981347;28;20023;-81
2022/12/11 08:46:38;;;;;;;37.10;16.23;;;1.10;99.90;;;;;;4960158;28;20026;-81
2022/12/11 08:49:04;;;;;;;44.75;19.33;;;1.10;99.90;;;;;;4963642;28;20045;-81
2022/12/11 08:51:29;;;;;;;47.78;18.75;;;1.10;99.90;;;;;;4948701;28;20084;-81
2022/12/11 08:53:56;;;;;;;35.45;13.85;;;1.10;99.90;;;;;;4938574;28;20033;-82
2022/12/11 08:56:22;;;;;;;44.60;17.23;;;1.10;99.90;;;;;;4956184;28;20057;-82
2022/12/11 08:58:48;;;;;;;48.88;17.40;;;1.00;99.90;;;;;;4970485;28;20042;-82
2022/12/11 09:01:15;;;;;;;43.10;17.13;;;1.00;99.90;;;;;;4950871;28;20057;-82
2022/12/11 09:03:41;;;;;;;46.08;16.80;;;1.10;99.90;;;;;;4952843;28;20494;-82
2022/12/11 09:06:08;;;;;;;44.85;19.70;;;1.10;99.90;;;;;;4948623;28;20089;-81
2022/12/11 09:08:33;;;;;;;44.08;17.13;;;1.10;99.90;;;;;;4963263;28;20574;-82
2022/12/11 09:11:08;;;;;;;50.80;17.83;;;1.10;99.90;;;;;;4964032;28;20101;-82
2022/12/11 09:13:33;;;;;;;41.53;16.15;;;1.10;99.90;;;;;;4967019;28;20026;-81
2022/12/11 09:15:59;;;;;;;42.25;16.80;;;1.10;99.90;;;;;;4948866;28;20390;-81
2022/12/11 09:18:31;;;;;;;58.40;21.27;;;1.10;99.90;;;;;;4969595;28;20026;-82
2022/12/11 09:21:17;;;;;;;40.33;16.48;;;1.10;99.90;;;;;;4981684;28;20187;-81
2022/12/11 09:23:42;;;;;;;38.80;16.27;;;1.10;99.90;;;;;;4942065;28;20030;-83
2022/12/11 09:26:15;;;;;;;47.67;17.85;;;1.10;99.90;;;;;;4966292;28;20543;-81
2022/12/11 09:28:42;;;;;;;40.08;17.13;;;1.10;99.90;;;;;;4951199;28;20035;-81
2022/12/11 09:31:09;;;;;;;56.55;22.48;;;1.10;99.90;;;;;;4967351;28;20706;-81
2022/12/11 09:33:35;;;;;;;41.97;17.05;;;1.10;99.90;;;;;;4955224;28;20144;-82
2022/12/11 09:36:01;;;;;;;40.22;16.40;;;1.10;99.90;;;;;;4954655;28;20073;-82
2022/12/11 09:38:27;;;;;;;47.40;18.83;;;1.10;99.90;;;;;;4955512;28;20038;-82
2022/12/11 09:40:53;;;;;;;47.05;17.88;;;1.10;99.90;;;;;;4936571;28;20034;-81
2022/12/11 09:43:31;;;;;;;43.85;18.17;;;1.20;99.90;;;;;;4971418;28;20437;-82
2022/12/11 09:45:58;;;;;;;34.33;15.90;;;1.20;99.90;;;;;;4984961;28;20035;-81
2022/12/11 09:48:24;;;;;;;42.30;17.02;;;1.20;99.90;;;;;;4958372;28;20034;-82
2022/12/11 09:50:52;;;;;;;40.00;16.92;;;1.20;99.90;;;;;;4942014;28;20069;-82
2022/12/11 09:53:20;;;;;;;39.47;16.95;;;1.20;99.90;;;;;;4952781;28;20030;-82
2022/12/11 09:56:08;;;;;;;49.33;20.33;;;1.20;99.90;;;;;;4967246;28;20109;-82
2022/12/11 09:59:11;;;;;;;53.80;20.90;;;1.20;99.90;;;;;;4980856;28;20058;-82
2022/12/11 10:02:02;;;;;;;31.63;13.13;;;1.30;99.90;;;;;;4979687;28;20074;-82
2022/12/11 10:04:37;;;;;;;47.10;19.33;;;1.30;99.90;;;;;;4965928;28;20482;-82
2022/12/11 10:07:12;;;;;;;12.98;4.35;;;1.20;99.90;;;;;;4982480;28;20055;-82
2022/12/11 10:10:11;;;;;;;46.78;21.00;;;1.30;99.90;;;;;;4988084;28;20447;-82
2022/12/11 10:12:41;;;;;;;34.63;12.50;;;1.20;99.90;;;;;;4975243;28;20035;-82
2022/12/11 10:15:28;;;;;;;43.13;16.27;;;1.20;99.90;;;;;;4967474;28;20072;-82
2022/12/11 10:17:55;;;;;;;36.67;11.82;;;1.20;99.90;;;;;;4960172;28;20084;-83
2022/12/11 10:20:33;;;;;;;39.30;16.65;;;1.20;99.90;;;;;;4957018;28;20046;-82
2022/12/11 10:22:59;;;;;;;16.85;6.32;;;1.20;99.90;;;;;;4988181;28;20494;-83
2022/12/11 10:25:28;;;;;;;37.22;16.15;;;1.20;99.90;;;;;;4971502;28;20117;-84
2022/12/11 10:27:54;;;;;;;39.45;17.05;;;1.20;99.90;;;;;;4986567;28;20394;-82
2022/12/11 10:30:26;;;;;;;37.97;17.52;;;1.30;99.90;;;;;;4972133;28;20167;-79
2022/12/11 10:33:02;;;;;;;57.95;21.92;;;1.20;99.90;;;;;;4949788;28;20114;-81
2022/12/11 10:35:35;;;;;;;39.13;16.88;;;1.20;99.90;;;;;;4956808;28;20442;-80
2022/12/11 10:38:11;;;;;;;36.22;15.13;;;1.20;99.90;;;;;;4988739;28;20494;-80
2022/12/11 10:40:38;;;;;;;37.55;14.88;;;1.30;99.90;;;;;;4971153;28;20045;-81
2022/12/11 10:43:04;;;;;;;39.78;17.65;;;1.30;99.90;;;;;;4967762;28;20031;-81
2022/12/11 10:45:29;;;;;;;34.95;15.23;;;1.30;99.90;;;;;;4970856;28;20050;-82
2022/12/11 10:48:05;;;;;;;36.55;14.45;;;1.30;99.90;;;;;;4959378;28;20037;-81
2022/12/11 10:50:32;;;;;;;43.47;18.25;;;1.30;99.90;;;;;;4970536;28;20034;-81
2022/12/11 10:52:57;;;;;;;47.80;20.02;;;1.30;99.90;;;;;;4956363;28;20060;-80
2022/12/11 10:55:52;;;;;;;49.55;20.08;;;1.30;99.90;;;;;;4960271;28;20027;-81
2022/12/11 10:58:20;;;;;;;37.67;15.70;;;1.30;99.90;;;;;;4946611;28;20034;-81
2022/12/11 11:00:59;;;;;;;44.85;19.33;;;1.40;99.90;;;;;;4955908;28;20085;-81
2022/12/11 11:03:26;;;;;;;49.60;20.25;;;1.30;99.90;;;;;;4978547;28;20976;-81
2022/12/11 11:06:05;;;;;;;38.58;15.07;;;1.30;99.90;;;;;;4971837;28;20540;-81
2022/12/11 11:08:39;;;;;;;53.47;20.17;;;1.40;99.90;;;;;;4954823;28;20031;-81
2022/12/11 11:11:05;;;;;;;57.53;23.15;;;1.40;99.90;;;;;;4975624;28;20073;-81
2022/12/11 11:13:30;;;;;;;43.35;19.15;;;1.40;99.90;;;;;;4956984;28;20659;-81
2022/12/11 11:16:06;;;;;;;57.72;22.42;;;1.40;99.90;;;;;;4987061;28;20536;-81
2022/12/11 11:18:32;;;;;;;37.42;15.13;;;1.40;99.90;;;;;;4971828;28;20045;-81
2022/12/11 11:20:57;;;;;;;38.30;15.10;;;1.50;99.90;;;;;;4955702;28;20437;-81
2022/12/11 11:23:23;;;;;;;44.67;17.65;;;1.50;99.90;;;;;;4973606;28;20026;-81
2022/12/11 11:25:53;;;;;;;42.78;17.52;;;1.50;99.90;;;;;;4957398;28;20051;-80
2022/12/11 11:28:30;;;;;;;46.17;17.30;;;1.50;99.90;;;;;;4938888;28;20031;-81
2022/12/11 11:31:02;;;;;;;38.40;14.07;;;1.50;99.90;;;;;;4973798;28;20026;-81
2022/12/11 11:33:28;;;;;;;36.50;16.58;;;1.60;99.90;;;;;;4989008;28;20118;-81
2022/12/11 11:36:02;;;;;;;36.28;16.17;;;1.50;99.90;;;;;;4939298;28;20118;-81
2022/12/11 11:38:45;;;;;;;56.25;21.42;;;1.50;99.90;;;;;;4954549;28;20576;-81
2022/12/11 11:41:20;;;;;;;40.55;16.67;;;1.60;99.90;;;;;;4972315;28;20553;-81
2022/12/11 11:43:59;;;;;;;55.13;21.10;;;1.50;99.90;;;;;;4988208;28;20157;-82
2022/12/11 11:46:28;;;;;;;40.33;17.25;;;1.60;99.90;;;;;;4956035;28;20065;-81
2022/12/11 11:49:03;;;;;;;39.25;17.90;;;1.60;99.90;;;;;;4977689;28;20034;-81
2022/12/11 11:51:31;;;;;;;43.63;20.77;;;1.60;99.90;;;;;;4986786;28;20111;-82
2022/12/11 11:53:58;;;;;;;43.72;19.05;;;1.60;99.90;;;;;;4950823;28;20126;-80
2022/12/11 11:56:42;;;;;;;45.63;20.58;;;1.60;99.90;;;;;;4972955;28;20030;-81
2022/12/11 11:59:12;;;;;;;38.90;17.27;;;1.60;99.90;;;;;;4940578;28;21785;-81
2022/12/11 12:01:40;;;;;;;41.10;16.38;;;1.60;99.90;;;;;;4981656;28;20110;-81
2022/12/11 12:04:06;;;;;;;51.00;19.83;;;1.60;99.90;;;;;;4956184;28;20117;-81
2022/12/11 12:06:47;;;;;;;41.72;18.35;;;1.60;99.90;;;;;;4969070;28;20130;-81
2022/12/11 12:09:32;;;;;;;43.88;17.63;;;1.60;99.90;;;;;;4628158;28;9999895;-81
2022/12/11 12:12:39;;;;;;;46.72;19.88;;;1.60;99.90;;;;;;4951211;28;20048;-81
2022/12/11 12:15:19;;;;;;;47.72;18.90;;;1.60;99.90;;;;;;4956507;28;20034;-81
2022/12/11 12:17:56;;;;;;;37.22;15.75;;;1.60;99.90;;;;;;4980287;28;20038;-81
2022/12/11 12:20:43;;;;;;;40.47;17.67;;;1.60;99.90;;;;;;4982174;28;20031;-80
2022/12/11 12:23:37;;;;;;;41.58;17.45;;;1.60;99.90;;;;;;4984814;28;20034;-81
2022/12/11 12:26:10;;;;;;;43.90;18.88;;;1.60;99.90;;;;;;4973781;28;20407;-81
2022/12/11 12:28:58;;;;;;;49.08;21.35;;;1.60;99.90;;;;;;4969430;28;20046;-81
2022/12/11 12:31:42;;;;;;;41.50;18.70;;;1.60;99.90;;;;;;4986309;28;20403;-81
2022/12/11 12:34:11;;;;;;;39.88;17.73;;;1.70;99.90;;;;;;4984453;28;20055;-81
2022/12/11 12:36:49;;;;;;;44.33;18.42;;;1.70;99.90;;;;;;4987491;28;20026;-81
2022/12/11 12:39:37;;;;;;;35.78;16.50;;;1.80;99.90;;;;;;4977032;28;20040;-81
2022/12/11 12:42:20;;;;;;;40.45;17.55;;;1.80;99.90;;;;;;4980282;28;20030;-81
2022/12/11 12:45:02;;;;;;;38.03;18.70;;;1.80;99.90;;;;;;4971308;28;20035;-80
2022/12/11 12:47:29;;;;;;;37.35;17.65;;;1.90;99.90;;;;;;4948643;28;20181;-81
2022/12/11 12:49:55;;;;;;;41.60;18.05;;;1.90;99.90;;;;;;4967324;28;20026;-80
2022/12/11 12:52:28;;;;;;;43.78;20.13;;;1.90;99.90;;;;;;4936555;28;20084;-81
2022/12/11 12:55:14;;;;;;;41.35;19.63;;;2.00;99.90;;;;;;4983447;28;20065;-80
2022/12/11 12:57:41;;;;;;;;;;;2.00;99.90;;;;;;4979201;28;20592;-81
2022/12/11 13:00:07;;;;;;;49.85;21.27;;;2.00;99.90;;;;;;4960557;28;19922;-81
2022/12/11 13:02:36;;;;;;;47.88;19.63;;;2.00;99.90;;;;;;4968024;28;20058;-81
2022/12/11 13:05:33;;;;;;;44.30;19.30;;;2.10;99.90;;;;;;4960663;28;20046;-81